createdAt,value
2022-12-06T00:00:05.392Z,99654.47
2022-12-06T00:02:45.920Z,99633.44
2022-12-06T00:05:20.066Z,99628.69
2022-12-06T00:07:58.747Z,99553.34
2022-12-06T00:10:46.997Z,99592.16
2022-12-06T00:13:20.265Z,99479.34
2022-12-06T00:15:54.904Z,99551.34
2022-12-06T00:18:25.510Z,99552.56
2022-12-06T00:20:53.575Z,99673.88
2022-12-06T00:23:27.548Z,99636.66
2022-12-06T00:26:01.377Z,99623.06
2022-12-06T00:28:39.424Z,99659.59
2022-12-06T00:31:18.083Z,99628.53
2022-12-06T00:33:46.828Z,99635.13
2022-12-06T00:36:21.758Z,99678.16
2022-12-06T00:38:50.448Z,99665.41
2022-12-06T00:41:22.052Z,99671.59
2022-12-06T00:43:51.727Z,99674.97
2022-12-06T00:46:26.364Z,99641.81
2022-12-06T00:48:59.409Z,99668.53
2022-12-06T00:51:30.679Z,99660.25
2022-12-06T00:53:59.335Z,99660.09
2022-12-06T00:56:31.135Z,99642.50
2022-12-06T00:58:59.289Z,99641.75
2022-12-06T01:01:31.797Z,99660.00
2022-12-06T01:04:03.914Z,99640.16
2022-12-06T01:06:35.211Z,99633.38
2022-12-06T01:09:08.432Z,99581.16
2022-12-06T01:11:37.213Z,99646.88
2022-12-06T01:14:05.926Z,99597.88
2022-12-06T01:16:35.326Z,99645.97
2022-12-06T01:19:09.023Z,99646.72
2022-12-06T01:21:36.893Z,99637.00
2022-12-06T01:24:05.235Z,99619.00
2022-12-06T01:26:35.569Z,99610.66
2022-12-06T01:29:04.545Z,99637.16
2022-12-06T01:31:38.114Z,99568.16
2022-12-06T01:34:17.130Z,99591.69
2022-12-06T01:36:45.324Z,99590.84
2022-12-06T01:39:13.746Z,99588.41
2022-12-06T01:41:42.697Z,99577.75
2022-12-06T01:44:40.231Z,99589.72
2022-12-06T01:47:20.377Z,99609.69
2022-12-06T01:49:58.334Z,99602.09
2022-12-06T01:52:56.708Z,99530.25
2022-12-06T01:55:30.954Z,99577.75
2022-12-06T01:58:08.176Z,99568.25
2022-12-06T02:00:36.242Z,99587.84
2022-12-06T02:03:07.763Z,99586.09
2022-12-06T02:05:40.862Z,99590.25
2022-12-06T02:08:10.135Z,99430.16
2022-12-06T02:10:38.731Z,99577.38
2022-12-06T02:13:08.298Z,99506.25
2022-12-06T02:16:09.261Z,99495.97
2022-12-06T02:19:17.270Z,99578.91
2022-12-06T02:22:06.843Z,99578.03
2022-12-06T02:24:46.765Z,99577.88
2022-12-06T02:27:42.313Z,99571.53
2022-12-06T02:30:34.953Z,99484.53
2022-12-06T02:33:25.500Z,99560.13
2022-12-06T02:36:36.432Z,99395.34
2022-12-06T02:39:15.321Z,99548.09
2022-12-06T02:42:27.347Z,99547.34
2022-12-06T02:45:08.835Z,99508.50
2022-12-06T02:47:38.827Z,99372.19
2022-12-06T02:50:19.546Z,99507.31
2022-12-06T02:52:54.475Z,99551.31
2022-12-06T02:55:24.940Z,99457.25
2022-12-06T02:57:57.161Z,99535.91
2022-12-06T03:00:42.460Z,99509.31
2022-12-06T03:03:25.834Z,99492.44
2022-12-06T03:06:02.884Z,99550.22
2022-12-06T03:09:06.824Z,99538.19
2022-12-06T03:11:53.248Z,99499.44
2022-12-06T03:14:28.571Z,99524.03
2022-12-06T03:17:16.951Z,99521.13
2022-12-06T03:19:54.841Z,99523.56
2022-12-06T03:22:40.417Z,99510.56
2022-12-06T03:25:12.955Z,99520.38
2022-12-06T03:27:42.545Z,99521.78
2022-12-06T03:30:14.074Z,99468.38
2022-12-06T03:32:47.245Z,99454.84
2022-12-06T03:35:23.057Z,99485.38
2022-12-06T03:37:57.485Z,99358.78
2022-12-06T03:40:34.085Z,99463.50
2022-12-06T03:43:06.856Z,99504.97
2022-12-06T03:46:06.117Z,99505.44
2022-12-06T03:48:59.311Z,99449.84
2022-12-06T03:51:35.607Z,99329.41
2022-12-06T03:54:27.109Z,99520.22
2022-12-06T03:56:58.513Z,99362.28
2022-12-06T03:59:32.517Z,99361.75
2022-12-06T04:02:05.805Z,99415.72
2022-12-06T04:04:51.479Z,99381.66
2022-12-06T04:07:23.035Z,99435.97
2022-12-06T04:10:05.437Z,99335.81
2022-12-06T04:13:29.781Z,99397.03
2022-12-06T04:16:05.558Z,99450.88
2022-12-06T04:18:38.343Z,99369.16
2022-12-06T04:21:28.240Z,99323.81
2022-12-06T04:24:03.560Z,99330.56
2022-12-06T04:26:46.819Z,99469.06
2022-12-06T04:29:33.940Z,99293.59
2022-12-06T04:32:21.081Z,99443.16
2022-12-06T04:35:13.156Z,99478.13
2022-12-06T04:38:00.456Z,99435.91
2022-12-06T04:40:28.520Z,99447.72
2022-12-06T04:43:15.888Z,99300.81
2022-12-06T04:45:43.980Z,99451.47
2022-12-06T04:48:12.306Z,99455.63
2022-12-06T04:50:40.149Z,99454.66
2022-12-06T04:53:10.171Z,99455.34
2022-12-06T04:55:38.389Z,99400.13
2022-12-06T04:58:06.360Z,99447.38
2022-12-06T05:00:34.627Z,99282.63
2022-12-06T05:03:03.147Z,99436.72
2022-12-06T05:05:31.307Z,99417.88
2022-12-06T05:08:00.151Z,99442.88
2022-12-06T05:10:29.783Z,99391.06
2022-12-06T05:13:00.369Z,99316.22
2022-12-06T05:15:29.841Z,99412.72
2022-12-06T05:17:58.264Z,99426.03
2022-12-06T05:20:26.275Z,99425.19
2022-12-06T05:22:54.834Z,99426.03
2022-12-06T05:25:27.767Z,99342.00
2022-12-06T05:27:55.899Z,99425.94
2022-12-06T05:30:28.189Z,99419.03
2022-12-06T05:33:00.167Z,99393.16
2022-12-06T05:35:29.081Z,99409.00
2022-12-06T05:38:11.713Z,99323.09
2022-12-06T05:40:48.256Z,99379.78
2022-12-06T05:43:25.450Z,99412.34
2022-12-06T05:46:15.225Z,99392.13
2022-12-06T05:48:55.294Z,99339.66
2022-12-06T05:51:48.058Z,99382.47
2022-12-06T05:54:21.905Z,99340.63
2022-12-06T05:56:54.954Z,99311.31
2022-12-06T05:59:28.331Z,99432.97
2022-12-06T06:02:06.989Z,99321.41
2022-12-06T06:04:35.362Z,99391.38
2022-12-06T06:07:03.212Z,99322.72
2022-12-06T06:09:31.152Z,99417.59
2022-12-06T06:11:59.377Z,99378.06
2022-12-06T06:14:27.449Z,99408.59
2022-12-06T06:16:58.290Z,99374.69
2022-12-06T06:19:26.695Z,99383.41
2022-12-06T06:21:56.958Z,99383.09
2022-12-06T06:24:27.516Z,99384.22
2022-12-06T06:27:05.644Z,99390.78
2022-12-06T06:29:42.163Z,99378.44
2022-12-06T06:32:13.829Z,99381.34
2022-12-06T06:34:44.484Z,99379.72
2022-12-06T06:37:12.567Z,99350.69
2022-12-06T06:39:43.141Z,99383.09
2022-12-06T06:42:11.239Z,99373.38
2022-12-06T06:44:39.224Z,99365.38
2022-12-06T06:47:07.458Z,99333.72
2022-12-06T06:49:35.792Z,99380.47
2022-12-06T06:52:04.155Z,99337.41
2022-12-06T06:54:34.593Z,99321.75
2022-12-06T06:57:03.258Z,99376.63
2022-12-06T06:59:33.621Z,99360.59
2022-12-06T07:02:01.682Z,99298.44
2022-12-06T07:04:30.337Z,99362.91
2022-12-06T07:06:58.473Z,99315.75
2022-12-06T07:09:26.876Z,99364.31
2022-12-06T07:11:55.024Z,99265.88
2022-12-06T07:14:24.771Z,99352.81
2022-12-06T07:16:53.659Z,99350.75
2022-12-06T07:19:21.777Z,99366.19
2022-12-06T07:21:50.908Z,99357.19
2022-12-06T07:24:19.000Z,99338.66
2022-12-06T07:26:50.273Z,99343.63
2022-12-06T07:29:18.223Z,99352.03
2022-12-06T07:31:46.255Z,99214.59
2022-12-06T07:34:14.277Z,99297.66
2022-12-06T07:36:43.229Z,99308.09
2022-12-06T07:39:14.759Z,99207.94
2022-12-06T07:42:04.956Z,99337.84
2022-12-06T07:45:04.688Z,99173.53
2022-12-06T07:47:38.041Z,99313.56
2022-12-06T07:50:15.967Z,99277.34
2022-12-06T07:52:48.724Z,99338.44
2022-12-06T07:55:18.082Z,99338.03
2022-12-06T07:57:49.174Z,99336.69
2022-12-06T08:00:17.618Z,99335.84
2022-12-06T08:02:45.750Z,99327.97
2022-12-06T08:05:13.905Z,99338.09
2022-12-06T08:07:42.062Z,99328.16
2022-12-06T08:10:10.080Z,99334.28
2022-12-06T08:12:40.494Z,99327.16
2022-12-06T08:15:13.233Z,99330.38
2022-12-06T08:17:42.478Z,99340.44
2022-12-06T08:20:11.176Z,99338.47
2022-12-06T08:22:39.234Z,99311.66
2022-12-06T08:25:08.002Z,99317.50
2022-12-06T08:27:36.387Z,99318.69
2022-12-06T08:30:08.129Z,99324.69
2022-12-06T08:32:36.162Z,99320.06
2022-12-06T08:35:04.194Z,99297.13
2022-12-06T08:37:35.238Z,99336.25
2022-12-06T08:40:12.129Z,99231.19
2022-12-06T08:42:48.080Z,99215.56
2022-12-06T08:45:17.053Z,99316.91
2022-12-06T08:47:45.032Z,99235.59
2022-12-06T08:50:13.005Z,99311.84
2022-12-06T08:52:41.239Z,99298.16
2022-12-06T08:55:12.585Z,99169.88
2022-12-06T08:57:40.479Z,99297.03
2022-12-06T09:00:10.339Z,99233.72
2022-12-06T09:02:41.989Z,99270.63
2022-12-06T09:05:10.136Z,99287.38
2022-12-06T09:07:38.376Z,99258.88
2022-12-06T09:10:07.273Z,99285.28
2022-12-06T09:12:35.339Z,99149.72
2022-12-06T09:15:04.165Z,99270.28
2022-12-06T09:17:32.040Z,99241.97
2022-12-06T09:20:05.453Z,99267.53
2022-12-06T09:22:34.034Z,99257.03
2022-12-06T09:25:02.254Z,99258.91
2022-12-06T09:27:31.110Z,99252.00
2022-12-06T09:30:00.857Z,99186.38
2022-12-06T09:32:28.997Z,99253.06
2022-12-06T09:34:57.094Z,99251.47
2022-12-06T09:37:25.346Z,99248.84
2022-12-06T09:40:01.824Z,99233.31
2022-12-06T09:43:03.892Z,99246.13
2022-12-06T09:45:38.476Z,99242.22
2022-12-06T09:48:49.021Z,99241.28
2022-12-06T09:51:35.473Z,99239.16
2022-12-06T09:54:15.220Z,99237.06
2022-12-06T09:57:01.172Z,99232.88
2022-12-06T09:59:47.944Z,99227.00
2022-12-06T10:03:08.982Z,99216.03
2022-12-06T10:06:09.164Z,99228.78
2022-12-06T10:09:04.337Z,99214.16
2022-12-06T10:12:07.897Z,99220.56
2022-12-06T10:15:45.361Z,99196.50
2022-12-06T10:18:52.009Z,99166.78
2022-12-06T10:22:01.200Z,99199.63
2022-12-06T10:24:53.731Z,99192.38
2022-12-06T10:27:37.889Z,99195.63
2022-12-06T10:30:12.876Z,99163.63
2022-12-06T10:32:57.115Z,99200.25
2022-12-06T10:36:01.521Z,99175.25
2022-12-06T10:38:46.672Z,99162.03
2022-12-06T10:41:27.027Z,99167.28
2022-12-06T10:44:27.164Z,99154.97
2022-12-06T10:47:23.992Z,99155.06
2022-12-06T10:50:29.935Z,99150.03
2022-12-06T10:53:20.428Z,99153.13
2022-12-06T10:56:05.849Z,99153.94
2022-12-06T10:58:37.969Z,99152.56
2022-12-06T11:01:32.353Z,99101.22
2022-12-06T11:04:10.358Z,99147.00
2022-12-06T11:06:54.466Z,99135.88
2022-12-06T11:09:51.647Z,99135.88
2022-12-06T11:12:31.925Z,99137.19
2022-12-06T11:15:24.775Z,99136.78
2022-12-06T11:18:15.798Z,99136.03
2022-12-06T11:21:26.896Z,99128.78
2022-12-06T11:24:22.715Z,99127.41
2022-12-06T11:27:10.515Z,99125.06
2022-12-06T11:29:39.281Z,99072.38
2022-12-06T11:32:08.119Z,99107.28
2022-12-06T11:34:55.887Z,99107.84
2022-12-06T11:37:28.283Z,99114.41
2022-12-06T11:40:32.086Z,99097.84
2022-12-06T11:43:05.953Z,99090.72
2022-12-06T11:45:37.739Z,99044.31
2022-12-06T11:48:28.397Z,99106.34
2022-12-06T11:50:57.129Z,99051.47
2022-12-06T11:53:56.858Z,99060.41
2022-12-06T11:56:29.432Z,99111.72
2022-12-06T11:59:25.054Z,99104.25
2022-12-06T12:02:03.881Z,99080.88
2022-12-06T12:04:44.916Z,99046.69
2022-12-06T12:07:17.474Z,99097.47
2022-12-06T12:10:00.705Z,99051.47
2022-12-06T12:13:08.740Z,99081.72
2022-12-06T12:15:37.981Z,99078.06
2022-12-06T12:18:20.575Z,99074.09
2022-12-06T12:20:49.308Z,99070.34
2022-12-06T12:23:30.605Z,99068.88
2022-12-06T12:26:11.647Z,99064.19
2022-12-06T12:28:41.296Z,99068.81
2022-12-06T12:31:25.478Z,99072.88
2022-12-06T12:34:32.765Z,99055.03
2022-12-06T12:37:04.737Z,99007.63
2022-12-06T12:39:49.417Z,99047.47
2022-12-06T12:42:34.884Z,99040.78
2022-12-06T12:45:05.922Z,99042.44
2022-12-06T12:47:33.872Z,99030.50
2022-12-06T12:50:20.460Z,99033.00
2022-12-06T12:52:48.512Z,99038.56
2022-12-06T12:55:24.648Z,99031.66
2022-12-06T12:58:00.600Z,98977.41
2022-12-06T13:00:37.427Z,98982.59
2022-12-06T13:03:48.997Z,98976.19
2022-12-06T13:06:06.947Z,99011.63
2022-12-06T13:08:38.104Z,98968.72
2022-12-06T13:11:09.438Z,99012.44
2022-12-06T13:13:50.156Z,99011.00
2022-12-06T13:16:30.935Z,99022.94
2022-12-06T13:19:00.108Z,99015.59
2022-12-06T13:21:39.593Z,98878.63
2022-12-06T13:24:10.302Z,98979.63
2022-12-06T13:26:50.373Z,98940.31
2022-12-06T13:29:54.551Z,99001.13
2022-12-06T13:32:52.660Z,99002.59
2022-12-06T13:35:38.189Z,98999.75
2022-12-06T13:38:24.332Z,99001.13
2022-12-06T13:41:02.651Z,98986.41
2022-12-06T13:43:33.872Z,98984.97
2022-12-06T13:46:27.439Z,98963.97
2022-12-06T13:49:25.461Z,98980.97
2022-12-06T13:51:53.414Z,98982.03
2022-12-06T13:54:29.664Z,98942.19
2022-12-06T13:56:58.997Z,98955.22
2022-12-06T13:59:35.888Z,98975.97
2022-12-06T14:02:56.055Z,98974.50
2022-12-06T14:06:01.557Z,98986.69
2022-12-06T14:08:53.468Z,98969.69
2022-12-06T14:11:27.995Z,98932.75
2022-12-06T14:13:55.916Z,98981.13
2022-12-06T14:16:45.202Z,98936.56
2022-12-06T14:19:20.701Z,98976.31
2022-12-06T14:22:02.784Z,98979.13
2022-12-06T14:24:42.215Z,98967.81
2022-12-06T14:27:18.722Z,98968.56
2022-12-06T14:30:27.786Z,98983.34
2022-12-06T14:32:58.935Z,98973.28
2022-12-06T14:35:38.564Z,98918.41
2022-12-06T14:38:31.421Z,98972.66
2022-12-06T14:41:17.884Z,98971.28
2022-12-06T14:43:49.879Z,98972.66
2022-12-06T14:46:22.404Z,98961.09
2022-12-06T14:49:10.419Z,98970.13
2022-12-06T14:51:43.380Z,98927.84
2022-12-06T14:54:42.628Z,98928.16
2022-12-06T14:57:31.646Z,98967.81
2022-12-06T15:00:26.497Z,98985.13
2022-12-06T15:03:13.793Z,98986.06
2022-12-06T15:06:27.330Z,98987.75
2022-12-06T15:09:34.137Z,98999.00
2022-12-06T15:13:00.626Z,98973.59
2022-12-06T15:16:29.268Z,99000.47
2022-12-06T15:19:08.494Z,98984.91
2022-12-06T15:21:52.963Z,98986.50
2022-12-06T15:27:35.877Z,98910.63
2022-12-06T15:30:26.226Z,98993.41
2022-12-06T15:33:00.561Z,98974.41
2022-12-06T15:36:03.378Z,98978.94
2022-12-06T15:39:18.222Z,98936.00
2022-12-06T15:41:57.706Z,98973.06
2022-12-06T15:44:27.537Z,98973.16
2022-12-06T15:46:55.921Z,98970.97
2022-12-06T15:49:26.337Z,98891.63
2022-12-06T15:51:56.872Z,98909.28
2022-12-06T15:54:29.602Z,98947.22
2022-12-06T15:56:57.947Z,98912.75
2022-12-06T15:59:26.826Z,98948.09
2022-12-06T16:01:54.677Z,98900.03
2022-12-06T16:04:26.116Z,98891.66
2022-12-06T16:06:53.939Z,98848.88
2022-12-06T16:09:22.154Z,98935.94
2022-12-06T16:11:50.524Z,98942.53
2022-12-06T16:14:18.452Z,98935.50
2022-12-06T16:16:49.233Z,98887.97
2022-12-06T16:19:17.637Z,98894.81
2022-12-06T16:21:59.486Z,98940.84
2022-12-06T16:24:28.615Z,98932.97
2022-12-06T16:26:59.666Z,98932.88
2022-12-06T16:29:27.720Z,98925.22
2022-12-06T16:31:59.216Z,98931.50
2022-12-06T16:34:28.753Z,98928.88
2022-12-06T16:37:04.559Z,98928.59
2022-12-06T16:39:35.801Z,98917.06
2022-12-06T16:42:07.683Z,98925.97
2022-12-06T16:44:51.620Z,98922.50
2022-12-06T16:50:09.524Z,98916.94
2022-12-06T16:52:38.539Z,98859.25
2022-12-06T16:55:06.843Z,98874.56
2022-12-06T16:57:34.786Z,98919.34
2022-12-06T17:00:05.508Z,98907.38
2022-12-06T17:02:34.169Z,98916.84
2022-12-06T17:05:06.515Z,98816.59
2022-12-06T17:07:36.917Z,98865.44
2022-12-06T17:10:05.933Z,98876.34
2022-12-06T17:12:33.918Z,98896.25
2022-12-06T17:15:02.245Z,98847.44
2022-12-06T17:17:30.648Z,98904.47
2022-12-06T17:19:59.120Z,98916.41
2022-12-06T17:22:27.130Z,98920.72
2022-12-06T17:24:56.774Z,98918.22
2022-12-06T17:27:25.110Z,98924.09
2022-12-06T17:29:56.756Z,98926.59
2022-12-06T17:32:24.902Z,98867.03
2022-12-06T17:34:53.026Z,98913.25
2022-12-06T17:37:21.190Z,98924.59
2022-12-06T17:39:49.312Z,98917.88
2022-12-06T17:42:35.993Z,98911.47
2022-12-06T17:45:06.167Z,98909.94
2022-12-06T17:47:34.370Z,98912.94
2022-12-06T17:50:03.800Z,98906.34
2022-12-06T17:52:33.365Z,98903.81
2022-12-06T17:55:01.704Z,98903.09
2022-12-06T17:57:30.618Z,98888.81
2022-12-06T17:59:58.657Z,98874.25
2022-12-06T18:02:27.689Z,98900.69
2022-12-06T18:04:56.965Z,98898.78
2022-12-06T18:07:25.431Z,98864.28
2022-12-06T18:09:53.389Z,98897.09
2022-12-06T18:12:26.532Z,98871.53
2022-12-06T18:14:56.883Z,98884.00
2022-12-06T18:17:24.991Z,98888.22
2022-12-06T18:19:53.315Z,98878.25
2022-12-06T18:22:21.471Z,98881.19
2022-12-06T18:24:49.447Z,98873.84
2022-12-06T18:27:19.512Z,98829.72
2022-12-06T18:29:47.741Z,98867.44
2022-12-06T18:32:16.927Z,98873.41
2022-12-06T18:34:45.090Z,98882.00
2022-12-06T18:37:13.113Z,98863.75
2022-12-06T18:39:41.196Z,98831.91
2022-12-06T18:42:09.532Z,98864.19
2022-12-06T18:44:37.702Z,98868.72
2022-12-06T18:47:05.645Z,98860.63
2022-12-06T18:49:33.755Z,98800.88
2022-12-06T18:52:01.828Z,98836.72
2022-12-06T18:54:29.648Z,98851.09
2022-12-06T18:56:59.433Z,98857.72
2022-12-06T18:59:28.048Z,98859.25
2022-12-06T19:01:59.961Z,98873.50
2022-12-06T19:04:29.705Z,98870.06
2022-12-06T19:06:58.550Z,98819.22
2022-12-06T19:09:26.463Z,98866.59
2022-12-06T19:11:57.184Z,98863.97
2022-12-06T19:14:26.370Z,98856.22
2022-12-06T19:16:54.526Z,98778.56
2022-12-06T19:19:25.736Z,98777.59
2022-12-06T19:21:54.970Z,98873.31
2022-12-06T19:24:27.066Z,98877.59
2022-12-06T19:26:58.165Z,98832.84
2022-12-06T19:29:28.570Z,98874.06
2022-12-06T19:31:59.848Z,98826.13
2022-12-06T19:34:28.525Z,98825.94
2022-12-06T19:37:00.033Z,98867.75
2022-12-06T19:39:28.150Z,98866.09
2022-12-06T19:42:19.199Z,98865.13
2022-12-06T19:44:47.812Z,98865.88
2022-12-06T19:47:18.137Z,98814.72
2022-12-06T19:49:46.601Z,98858.94
2022-12-06T19:52:15.126Z,98866.63
2022-12-06T19:54:43.845Z,98863.88
2022-12-06T19:57:12.399Z,98851.81
2022-12-06T19:59:40.612Z,98865.38
2022-12-06T20:02:13.092Z,98861.66
2022-12-06T20:04:42.762Z,98861.03
2022-12-06T20:07:11.009Z,98859.50
2022-12-06T20:09:39.740Z,98852.25
2022-12-06T20:12:09.087Z,98845.22
2022-12-06T20:14:47.556Z,98792.19
2022-12-06T20:17:23.801Z,98826.44
2022-12-06T20:19:52.067Z,98829.47
2022-12-06T20:22:23.037Z,98822.06
2022-12-06T20:24:51.865Z,98824.47
2022-12-06T20:27:42.315Z,98768.81
2022-12-06T20:30:11.114Z,98772.16
2022-12-06T20:32:39.361Z,98795.09
2022-12-06T20:35:08.216Z,98812.31
2022-12-06T20:37:36.423Z,98807.78
2022-12-06T20:40:05.243Z,98769.53
2022-12-06T20:42:34.676Z,98769.22
2022-12-06T20:45:02.610Z,98819.63
2022-12-06T20:47:30.747Z,98824.00
2022-12-06T20:49:59.194Z,98823.31
2022-12-06T20:52:27.390Z,98826.63
2022-12-06T20:54:57.892Z,98825.72
2022-12-06T20:57:27.452Z,98824.13
2022-12-06T21:00:00.815Z,98829.81
2022-12-06T21:02:33.197Z,98821.09
2022-12-06T21:05:05.336Z,98778.66
2022-12-06T21:07:33.832Z,98823.72
2022-12-06T21:10:02.343Z,98807.47
2022-12-06T21:12:30.835Z,98819.31
2022-12-06T21:14:59.372Z,98774.88
2022-12-06T21:17:27.426Z,98818.25
2022-12-06T21:19:56.719Z,98823.59
2022-12-06T21:22:25.282Z,98787.25
2022-12-06T21:24:57.247Z,98814.25
2022-12-06T21:27:26.097Z,98815.41
2022-12-06T21:29:56.765Z,98817.84
2022-12-06T21:32:26.009Z,98808.16
2022-12-06T21:34:54.881Z,98784.09
2022-12-06T21:37:24.700Z,98815.50
2022-12-06T21:39:53.333Z,98764.16
2022-12-06T21:42:24.160Z,98772.44
2022-12-06T21:44:53.865Z,98798.19
2022-12-06T21:47:22.295Z,98801.31
2022-12-06T21:49:50.523Z,98810.25
2022-12-06T21:52:19.190Z,98815.91
2022-12-06T21:54:48.750Z,98812.66
2022-12-06T21:57:17.380Z,98805.75
2022-12-06T21:59:47.945Z,98810.44
2022-12-06T22:02:20.046Z,98816.00
2022-12-06T22:04:49.114Z,98797.53
2022-12-06T22:07:19.070Z,98800.50
2022-12-06T22:09:48.390Z,98810.88
2022-12-06T22:12:17.352Z,98755.53
2022-12-06T22:14:47.294Z,98809.28
2022-12-06T22:17:15.520Z,98790.41
2022-12-06T22:19:43.907Z,98801.53
2022-12-06T22:22:12.412Z,98796.28
2022-12-06T22:24:40.480Z,98800.25
2022-12-06T22:27:08.672Z,98779.06
2022-12-06T22:29:36.758Z,98717.41
2022-12-06T22:32:04.903Z,98791.41
2022-12-06T22:34:32.910Z,98789.13
2022-12-06T22:37:01.165Z,98787.88
2022-12-06T22:39:32.193Z,98740.19
2022-12-06T22:42:00.040Z,98773.78
2022-12-06T22:44:28.026Z,98771.31
2022-12-06T22:46:56.450Z,98739.09
2022-12-06T22:49:24.575Z,98784.44
2022-12-06T22:51:52.762Z,98788.53
2022-12-06T22:54:21.124Z,98787.78
2022-12-06T22:56:49.241Z,98715.13
2022-12-06T22:59:18.267Z,98779.63
2022-12-06T23:01:47.088Z,98770.66
2022-12-06T23:04:16.580Z,98770.66
2022-12-06T23:06:44.539Z,98732.97
2022-12-06T23:09:16.765Z,98774.53
2022-12-06T23:11:45.034Z,98721.88
2022-12-06T23:14:13.103Z,98767.59
2022-12-06T23:16:43.857Z,98777.22
2022-12-06T23:19:12.139Z,98774.59
2022-12-06T23:21:40.982Z,98727.44
2022-12-06T23:24:13.003Z,98780.22
2022-12-06T23:26:50.655Z,98784.19
2022-12-06T23:29:21.310Z,98780.72
2022-12-06T23:31:49.489Z,98784.19
2022-12-06T23:34:22.679Z,98751.28
2022-12-06T23:36:50.838Z,98722.75
2022-12-06T23:39:19.308Z,98764.41
2022-12-06T23:41:48.920Z,98766.91
2022-12-06T23:44:17.259Z,98768.00
2022-12-06T23:46:46.058Z,98760.84
2022-12-06T23:49:22.265Z,98761.34
2022-12-06T23:51:50.667Z,98763.00
2022-12-06T23:54:19.832Z,98760.03
2022-12-06T23:56:48.714Z,98760.88
2022-12-06T23:59:18.266Z,98728.94
